Time;durP1;ratioP1;P1;durP2;ratioP2;P2;SDS_P1;SDS_P2;PMS_P1;PMS_P2;Temp;Humidity;BMP_temperature;BMP_pressure;BME280_temperature;BME280_humidity;BME280_pressure;Samples;Min_cycle;Max_cycle;Signal;HPM_P1;HPM_P2
2022/01/16 00:04:34;;;;;;;36.47;8.60;;;;;;;10.15;50.46;102134.66;4974201;28;20038;-61
2022/01/16 00:07:03;;;;;;;56.50;9.05;;;;;;;10.16;50.30;102150.63;4974557;28;20093;-60
2022/01/16 00:09:29;;;;;;;43.22;9.02;;;;;;;10.17;50.00;102164.88;4974374;28;20029;-61
2022/01/16 00:11:58;;;;;;;43.03;9.63;;;;;;;10.12;50.22;102166.94;4974168;28;20437;-61
2022/01/16 00:14:25;;;;;;;32.70;7.97;;;;;;;10.17;50.38;102172.91;4974158;28;20023;-60
2022/01/16 00:16:51;;;;;;;32.78;8.43;;;;;;;10.17;50.50;102167.56;4974291;28;20034;-61
2022/01/16 00:19:16;;;;;;;34.28;8.20;;;;;;;10.13;50.16;102168.72;4974263;28;20125;-61
2022/01/16 00:21:42;;;;;;;18.88;6.53;;;;;;;10.11;50.27;102182.13;4974131;28;20031;-61
2022/01/16 00:24:08;;;;;;;28.48;7.63;;;;;;;10.10;50.43;102180.44;4974163;28;20419;-61
2022/01/16 00:26:35;;;;;;;20.85;6.38;;;;;;;10.11;50.22;102187.50;4973942;28;20031;-61
2022/01/16 00:29:01;;;;;;;17.23;7.63;;;;;;;10.10;50.12;102174.22;4974070;28;20041;-60
2022/01/16 00:31:26;;;;;;;15.65;7.70;;;;;;;10.08;49.69;102165.44;4973755;28;20098;-61
2022/01/16 00:33:52;;;;;;;20.67;7.35;;;;;;;10.08;50.35;102179.66;4940623;28;20116;-61
2022/01/16 00:36:19;;;;;;;17.95;7.50;;;;;;;10.07;50.09;102187.78;4956579;28;20058;-61
2022/01/16 00:38:45;;;;;;;18.17;7.47;;;;;;;10.07;50.67;102198.50;4956754;28;20057;-61
2022/01/16 00:41:15;;;;;;;18.02;7.72;;;;;;;10.04;49.95;102193.31;4973593;28;20023;-61
2022/01/16 00:43:41;;;;;;;15.25;7.50;;;;;;;10.05;50.21;102197.72;4957145;28;20511;-60
2022/01/16 00:46:06;;;;;;;19.60;7.03;;;;;;;10.04;50.54;102190.66;4974069;28;20102;-61
2022/01/16 00:48:32;;;;;;;13.65;6.97;;;;;;;9.99;50.05;102187.38;4973803;28;20027;-61
2022/01/16 00:50:58;;;;;;;16.67;8.00;;;;;;;10.04;50.17;102206.72;4973863;28;20026;-60
2022/01/16 00:53:23;;;;;;;21.77;7.85;;;;;;;10.01;49.89;102193.50;4974038;28;20755;-61
2022/01/16 00:55:49;;;;;;;15.70;7.10;;;;;;;10.00;50.09;102178.38;4963124;28;20026;-61
2022/01/16 00:58:14;;;;;;;24.48;9.32;;;;;;;10.02;49.83;102176.50;4965481;28;20119;-60
2022/01/16 01:00:40;;;;;;;21.10;8.98;;;;;;;10.00;49.87;102162.31;4962899;28;20037;-61
2022/01/16 01:03:08;;;;;;;21.52;7.65;;;;;;;9.93;50.05;102151.16;4946814;28;20031;-61
2022/01/16 01:05:35;;;;;;;23.63;7.97;;;;;;;9.88;49.86;102151.41;4973516;28;20019;-61
2022/01/16 01:08:01;;;;;;;20.27;9.10;;;;;;;9.85;49.97;102185.53;4973494;28;20034;-61
2022/01/16 01:10:33;;;;;;;28.50;8.50;;;;;;;9.83;49.99;102182.94;4973396;28;20011;-61
2022/01/16 01:16:03;;;;;;;20.63;8.55;;;;;;;9.77;49.90;102175.28;4947794;28;20268;-61
2022/01/16 01:18:33;;;;;;;23.60;8.20;;;;;;;9.76;50.12;102184.28;4959439;28;20029;-61
2022/01/16 01:21:01;;;;;;;18.40;7.70;;;;;;;9.77;50.05;102169.91;4974289;28;20022;-61
2022/01/16 01:23:27;;;;;;;25.35;8.15;;;;;;;9.77;50.37;102177.94;4959733;28;20023;-61
2022/01/16 01:25:52;;;;;;;19.98;7.60;;;;;;;9.79;49.90;102192.13;4951341;28;20069;-61
2022/01/16 01:28:18;;;;;;;19.70;9.25;;;;;;;9.78;49.79;102193.06;4948201;29;20019;-62
2022/01/16 01:30:46;;;;;;;19.02;8.05;;;;;;;9.78;49.67;102187.72;4956848;28;20042;-61
2022/01/16 01:33:18;;;;;;;19.48;8.00;;;;;;;9.80;50.06;102172.41;4973721;28;20072;-62
2022/01/16 01:35:44;;;;;;;22.35;9.55;;;;;;;9.80;49.30;102107.31;5221598;23;20050;-62
2022/01/16 01:38:11;;;;;;;26.52;9.52;;;;;;;9.83;50.11;102097.31;4964511;28;20042;-61
2022/01/16 01:40:37;;;;;;;25.33;9.48;;;;;;;9.83;49.74;102080.38;4959163;28;20015;-62
2022/01/16 01:51:01;;;;;;;27.35;9.77;;;;;;;9.81;50.07;102087.66;4983120;28;20034;-61
2022/01/16 01:51:28;;;;;;;34.22;10.57;;;;;;;9.63;49.76;102137.78;4981203;28;20442;-61
2022/01/16 01:53:55;;;;;;;26.55;10.23;;;;;;;9.54;49.74;102132.13;4995826;28;20023;-61
2022/01/16 01:56:23;;;;;;;23.42;10.88;;;;;;;9.58;50.16;102150.56;4979071;28;20033;-61
2022/01/16 01:58:50;;;;;;;27.52;11.48;;;;;;;9.58;50.20;102142.53;4995686;28;20030;-61
2022/01/16 02:01:16;;;;;;;22.33;10.48;;;;;;;9.59;50.23;102146.94;4978774;28;20030;-61
2022/01/16 02:06:17;;;;;;;23.00;10.43;;;;;;;9.63;50.38;102167.19;4995820;28;20034;-61
2022/01/16 02:08:44;;;;;;;26.90;10.13;;;;;;;9.67;50.63;102166.06;4978847;28;20029;-62
2022/01/16 02:11:12;;;;;;;26.70;10.25;;;;;;;9.68;49.97;102157.13;4996462;28;20037;-61
2022/01/16 02:13:47;;;;;;;22.63;11.15;;;;;;;9.70;49.58;102171.25;4996605;28;20018;-61
2022/01/16 02:35:10;;;;;;;21.23;10.25;;;;;;;10.03;49.85;102178.19;4995719;28;20050;-61
2022/01/16 02:37:36;;;;;;;22.65;11.77;;;;;;;10.07;50.04;102179.75;4995881;28;20039;-62
2022/01/16 02:40:10;;;;;;;26.30;10.45;;;;;;;10.09;49.85;102167.13;4978649;28;20026;-62
2022/01/16 02:42:39;;;;;;;22.42;10.38;;;;;;;10.09;50.41;102168.00;4979738;28;20080;-61
2022/01/16 02:45:06;;;;;;;23.98;9.65;;;;;;;10.07;49.98;102144.94;4995944;28;20097;-62
2022/01/16 02:47:32;;;;;;;21.85;10.30;;;;;;;10.09;49.89;102145.72;4995863;28;20100;-62
2022/01/16 02:50:00;;;;;;;21.00;10.35;;;;;;;10.06;49.98;102138.72;4995708;28;20480;-62
2022/01/16 02:52:25;;;;;;;23.10;10.32;;;;;;;10.09;50.05;102145.72;4995734;28;20033;-62
2022/01/16 02:54:51;;;;;;;23.38;10.18;;;;;;;10.10;49.46;102147.44;4978036;28;20027;-62
2022/01/16 02:57:19;;;;;;;24.05;10.88;;;;;;;10.09;49.79;102124.28;4977815;28;20022;-62
2022/01/16 02:59:49;;;;;;;21.23;10.38;;;;;;;10.13;49.95;102137.44;4995193;28;20097;-62
2022/01/16 03:02:16;;;;;;;22.50;9.52;;;;;;;10.14;49.96;102122.22;4978404;28;20027;-62
2022/01/16 03:04:42;;;;;;;27.55;11.88;;;;;;;10.14;49.75;102119.53;4995299;28;20026;-62
2022/01/16 03:07:07;;;;;;;19.08;10.43;;;;;;;10.20;50.20;102124.53;4978096;28;20466;-62
2022/01/16 03:12:17;;;;;;;21.88;10.40;;;;;;;10.26;49.74;102113.44;4995233;28;20092;-62
2022/01/16 03:14:43;;;;;;;17.75;10.35;;;;;;;10.29;49.86;102102.53;4995222;28;20034;-62
2022/01/16 03:17:10;;;;;;;19.67;10.57;;;;;;;10.31;49.97;102097.94;4977825;28;20030;-62
2022/01/16 03:22:20;;;;;;;22.38;10.00;;;;;;;10.33;49.88;102109.44;4995239;28;20562;-62
2022/01/16 03:24:46;;;;;;;23.15;12.02;;;;;;;10.33;49.41;102101.41;4995009;28;20030;-62
2022/01/16 03:27:14;;;;;;;27.73;12.15;;;;;;;10.37;50.34;102101.09;4977668;28;20034;-62
2022/01/16 03:29:42;;;;;;;30.85;11.38;;;;;;;10.42;49.69;102106.16;4994986;28;20422;-62
2022/01/16 03:32:10;;;;;;;25.92;13.05;;;;;;;10.44;49.92;102104.28;4977374;28;20081;-62
2022/01/16 03:34:36;;;;;;;33.15;11.95;;;;;;;10.45;49.65;102093.44;4977037;28;20085;-62
2022/01/16 03:37:02;;;;;;;27.17;13.82;;;;;;;10.51;50.02;102105.59;4994617;28;20415;-62
2022/01/16 03:39:27;;;;;;;29.55;12.85;;;;;;;10.53;49.98;102098.31;4995126;28;20061;-62
2022/01/16 03:41:55;;;;;;;29.25;13.15;;;;;;;10.56;50.04;102098.09;4994941;28;20030;-62
2022/01/16 03:44:20;;;;;;;29.30;13.48;;;;;;;10.58;50.13;102085.47;4995067;28;20076;-62
2022/01/16 03:46:46;;;;;;;27.73;12.63;;;;;;;10.57;49.86;102081.09;4994828;28;20480;-62
2022/01/16 03:49:20;;;;;;;34.85;14.40;;;;;;;10.60;49.87;102082.72;4977216;28;20030;-62
2022/01/16 03:51:47;;;;;;;34.35;14.82;;;;;;;10.61;49.80;102085.28;4994480;28;20019;-61
2022/01/16 03:54:15;;;;;;;36.33;15.68;;;;;;;10.63;49.96;102083.38;4994520;28;20095;-62
2022/01/16 03:56:40;;;;;;;35.25;13.35;;;;;;;10.63;50.16;102094.09;4994514;28;20369;-62
2022/01/16 03:59:06;;;;;;;35.17;14.43;;;;;;;10.67;50.09;102090.25;4994752;28;20033;-62
2022/01/16 04:01:32;;;;;;;35.38;15.65;;;;;;;10.71;50.15;102101.63;4994117;28;20561;-62
2022/01/16 04:03:57;;;;;;;36.25;15.68;;;;;;;10.70;49.26;102103.44;4977194;28;20511;-61
2022/01/16 04:06:23;;;;;;;41.60;15.85;;;;;;;10.74;49.81;102085.34;4994397;28;20026;-61
2022/01/16 04:08:50;;;;;;;41.50;16.70;;;;;;;10.76;49.89;102089.66;4994401;28;20097;-62
2022/01/16 04:11:16;;;;;;;37.55;14.95;;;;;;;10.77;50.53;102085.16;4994281;28;20022;-62
2022/01/16 04:13:49;;;;;;;37.72;14.88;;;;;;;10.79;50.04;102100.19;4977189;28;20018;-62
2022/01/16 04:16:15;;;;;;;34.97;15.73;;;;;;;10.82;49.94;102088.41;4994306;28;20097;-62
2022/01/16 04:18:41;;;;;;;34.85;14.75;;;;;;;10.79;49.67;102081.41;4977285;28;20053;-62
2022/01/16 04:21:06;;;;;;;36.33;15.98;;;;;;;10.82;49.96;102093.75;4994258;28;20433;-61
2022/01/16 04:23:31;;;;;;;36.05;15.00;;;;;;;10.82;50.26;102099.97;4994215;28;20117;-62
2022/01/16 04:25:57;;;;;;;44.22;16.75;;;;;;;10.81;49.92;102092.03;4994099;28;20185;-61
2022/01/16 04:28:24;;;;;;;34.40;14.25;;;;;;;10.84;50.57;102100.72;4994033;28;20031;-62
2022/01/16 04:30:53;;;;;;;38.47;15.48;;;;;;;10.86;49.75;102097.97;4993944;28;20488;-62
2022/01/16 04:33:19;;;;;;;35.60;16.88;;;;;;;10.86;50.58;102096.13;4976755;28;20042;-62
2022/01/16 04:35:44;;;;;;;33.90;15.57;;;;;;;10.88;49.49;102102.28;4976505;28;20535;-62
2022/01/16 04:38:10;;;;;;;42.47;17.17;;;;;;;10.91;49.98;102109.25;4976568;28;20034;-61
2022/01/16 04:40:45;;;;;;;38.03;16.15;;;;;;;10.92;49.87;102106.47;4994087;28;20042;-62
2022/01/16 04:45:56;;;;;;;40.92;15.10;;;;;;;10.88;49.51;102091.56;4994487;28;20121;-62
2022/01/16 04:48:21;;;;;;;38.17;15.40;;;;;;;10.90;49.72;102097.66;4997776;28;20492;-62
2022/01/16 04:50:47;;;;;;;36.47;15.30;;;;;;;10.90;50.17;102103.03;4997964;28;20026;-61
2022/01/16 04:53:12;;;;;;;41.92;16.48;;;;;;;10.93;50.30;102113.53;4997596;28;20101;-62
2022/01/16 04:55:37;;;;;;;38.38;16.17;;;;;;;10.97;50.11;102112.38;4997518;28;20031;-62
2022/01/16 04:58:03;;;;;;;33.75;15.55;;;;;;;11.00;49.93;102109.50;4997667;28;20419;-62
2022/01/16 05:00:28;;;;;;;38.20;17.08;;;;;;;11.01;49.86;102108.53;4997459;28;20540;-62
2022/01/16 05:02:53;;;;;;;42.92;16.25;;;;;;;11.03;49.72;102120.03;4997558;28;20461;-62
2022/01/16 05:05:19;;;;;;;37.47;15.13;;;;;;;11.05;50.05;102102.00;4997510;28;20062;-61
2022/01/16 05:07:44;;;;;;;34.78;16.05;;;;;;;11.04;50.27;102094.94;4997500;28;20031;-61
2022/01/16 05:10:10;;;;;;;40.58;16.52;;;;;;;11.05;50.30;102107.38;4963940;28;20022;-62
2022/01/16 05:12:41;;;;;;;44.05;14.95;;;;;;;11.03;49.78;102098.56;4980361;28;20057;-61
2022/01/16 05:17:50;;;;;;;35.88;14.48;;;;;;;11.04;50.12;102105.66;4997436;28;20033;-62
2022/01/16 05:20:16;;;;;;;39.95;15.98;;;;;;;11.04;49.91;102111.03;4997247;28;20030;-62
2022/01/16 05:22:42;;;;;;;36.53;16.00;;;;;;;11.05;49.91;102102.00;4979928;28;20027;-61
2022/01/16 05:25:08;;;;;;;33.72;15.77;;;;;;;11.05;50.33;102099.31;4997294;28;20022;-61
2022/01/16 05:27:34;;;;;;;40.15;16.83;;;;;;;11.05;49.99;102102.00;4997199;28;20046;-61
2022/01/16 05:30:00;;;;;;;33.08;15.10;;;;;;;11.09;50.23;102103.53;4997447;28;20033;-62
2022/01/16 05:32:25;;;;;;;42.53;16.50;;;;;;;11.11;50.11;102109.66;4979540;28;20030;-62
2022/01/16 05:34:50;;;;;;;35.13;15.63;;;;;;;11.11;49.75;102090.00;4997232;28;20460;-61
2022/01/16 05:37:16;;;;;;;40.03;16.50;;;;;;;11.14;50.25;102099.69;4996653;28;20057;-62
2022/01/16 05:39:44;;;;;;;37.70;15.80;;;;;;;11.15;49.77;102098.72;4997136;28;20022;-62
2022/01/16 05:42:11;;;;;;;39.42;15.43;;;;;;;11.14;50.06;102102.38;4979604;28;20117;-61
2022/01/16 05:44:36;;;;;;;33.42;15.68;;;;;;;11.13;50.24;102103.34;4979809;28;20026;-62
2022/01/16 05:47:02;;;;;;;34.95;15.88;;;;;;;11.11;50.45;102115.00;4996503;28;20027;-62
2022/01/16 05:49:28;;;;;;;40.75;15.63;;;;;;;11.13;49.69;102112.25;4996763;28;20033;-61
2022/01/16 05:51:54;;;;;;;33.65;14.90;;;;;;;11.17;50.10;102123.63;4996897;28;20375;-61
2022/01/16 05:54:19;;;;;;;38.13;16.05;;;;;;;11.19;49.91;102119.88;4996712;28;20029;-62
2022/01/16 05:56:45;;;;;;;34.03;15.90;;;;;;;11.21;50.28;102114.41;4995969;28;20038;-61
2022/01/16 05:59:10;;;;;;;38.10;17.48;;;;;;;11.23;50.22;102117.84;4993253;28;20033;-62
2022/01/16 06:01:36;;;;;;;36.50;14.98;;;;;;;11.22;50.36;102122.38;4992508;28;20033;-62
2022/01/16 06:04:02;;;;;;;39.17;16.67;;;;;;;11.19;50.03;102116.34;4977147;28;20383;-61
2022/01/16 06:06:27;;;;;;;42.97;16.00;;;;;;;11.21;50.29;102117.97;4978984;28;20030;-62
2022/01/16 06:08:53;;;;;;;37.10;15.98;;;;;;;11.20;50.61;102120.72;4996399;28;20101;-62
2022/01/16 06:11:18;;;;;;;45.53;16.67;;;;;;;11.17;50.29;102115.59;4996313;28;20562;-61
2022/01/16 06:13:43;;;;;;;35.58;16.73;;;;;;;11.15;50.03;102113.00;4995677;28;20061;-62
2022/01/16 06:16:09;;;;;;;40.95;16.30;;;;;;;11.14;50.62;102113.09;4976948;28;20033;-62
2022/01/16 06:18:34;;;;;;;35.88;14.32;;;;;;;11.16;50.42;102106.69;4976669;28;20019;-62
2022/01/16 06:21:00;;;;;;;35.58;15.20;;;;;;;11.17;50.39;102107.53;4975637;28;20026;-61
2022/01/16 06:23:25;;;;;;;42.92;16.23;;;;;;;11.18;50.50;102117.28;4975520;28;20033;-62
2022/01/16 06:25:54;;;;;;;41.15;16.52;;;;;;;11.18;50.41;102128.88;4975614;28;20562;-62
2022/01/16 06:28:23;;;;;;;34.03;15.45;;;;;;;11.14;50.31;102121.16;4976681;28;20034;-62
2022/01/16 06:30:49;;;;;;;37.05;16.65;;;;;;;11.15;49.79;102123.72;4975082;28;20027;-61
2022/01/16 06:33:14;;;;;;;38.33;14.90;;;;;;;11.19;50.33;102129.75;4983224;28;20043;-62
2022/01/16 06:35:40;;;;;;;36.88;16.00;;;;;;;11.18;50.72;102134.25;4995555;28;20419;-61
2022/01/16 06:38:06;;;;;;;36.10;16.70;;;;;;;11.21;50.73;102146.59;4995757;28;20124;-62
2022/01/16 06:40:31;;;;;;;36.50;14.30;;;;;;;11.23;50.02;102147.34;4995735;28;20023;-62
2022/01/16 06:42:57;;;;;;;39.58;16.52;;;;;;;11.23;50.62;102147.34;4995834;28;20105;-61
2022/01/16 06:45:22;;;;;;;43.50;17.27;;;;;;;11.22;50.63;102145.63;4995704;28;20117;-61
2022/01/16 06:47:47;;;;;;;40.33;16.48;;;;;;;11.25;50.11;102148.97;4978425;28;20034;-62
2022/01/16 06:50:13;;;;;;;39.30;15.75;;;;;;;11.24;50.34;102160.66;4978257;28;20118;-62
2022/01/16 06:52:39;;;;;;;41.83;16.30;;;;;;;11.25;50.31;102156.16;4978330;28;20037;-62
2022/01/16 06:55:05;;;;;;;38.90;16.42;;;;;;;11.24;50.07;102159.81;4978101;28;20376;-62
2022/01/16 06:57:30;;;;;;;37.42;16.00;;;;;;;11.26;50.24;102147.13;4995712;28;20028;-62
2022/01/16 06:59:55;;;;;;;37.25;15.45;;;;;;;11.14;50.06;102137.25;4977988;28;20026;-62
2022/01/16 07:02:22;;;;;;;42.08;16.15;;;;;;;11.25;50.67;102157.00;4995409;28;20026;-62
2022/01/16 07:04:48;;;;;;;45.92;18.83;;;;;;;11.24;49.82;102167.84;4978108;28;20092;-62
2022/01/16 07:07:13;;;;;;;40.03;17.10;;;;;;;11.24;50.29;102163.34;4995645;28;20030;-61
2022/01/16 07:09:39;;;;;;;48.08;16.42;;;;;;;11.23;50.12;102166.13;4994261;28;20069;-61
2022/01/16 07:12:06;;;;;;;40.00;16.80;;;;;;;11.25;50.18;102178.47;4995132;28;20022;-62
2022/01/16 07:14:31;;;;;;;39.05;15.43;;;;;;;11.24;50.20;102175.91;4994861;28;20053;-61
2022/01/16 07:16:56;;;;;;;32.63;15.63;;;;;;;11.24;50.31;102183.94;4988810;28;20128;-61
2022/01/16 07:19:22;;;;;;;39.22;16.50;;;;;;;11.25;50.29;102191.03;4975652;28;20023;-62
2022/01/16 07:21:47;;;;;;;43.20;16.45;;;;;;;11.26;49.81;102200.78;4974336;28;20033;-62
2022/01/16 07:24:15;;;;;;;38.13;16.35;;;;;;;11.24;49.67;102203.59;4975504;28;20023;-62
2022/01/16 07:26:44;;;;;;;36.13;17.13;;;;;;;11.25;50.39;102199.09;4975414;28;20106;-61
2022/01/16 07:29:10;;;;;;;46.33;19.48;;;;;;;11.23;50.50;102211.72;4974200;28;20030;-62
2022/01/16 07:31:38;;;;;;;41.65;17.65;;;;;;;11.24;50.48;102208.06;4975665;28;20025;-62
2022/01/16 07:34:07;;;;;;;49.20;17.20;;;;;;;11.23;50.80;102217.06;4975607;28;20109;-62
2022/01/16 07:36:32;;;;;;;40.90;16.33;;;;;;;11.22;50.07;102224.28;4984080;28;20049;-62
2022/01/16 07:38:58;;;;;;;46.65;16.08;;;;;;;11.25;49.88;102217.84;4994774;28;20034;-62
2022/01/16 07:41:23;;;;;;;42.38;16.63;;;;;;;11.29;50.30;102216.69;4994640;28;20061;-62
2022/01/16 07:43:49;;;;;;;42.10;16.63;;;;;;;11.29;50.38;102211.31;4994615;28;20480;-62
2022/01/16 07:46:16;;;;;;;40.20;15.57;;;;;;;11.30;50.26;102218.41;4994577;28;20547;-62
2022/01/16 07:48:42;;;;;;;37.08;16.38;;;;;;;11.28;49.80;102228.38;4994369;28;20439;-62
2022/01/16 07:51:07;;;;;;;42.45;16.67;;;;;;;11.30;50.34;102226.47;4994865;28;20026;-62
2022/01/16 07:53:34;;;;;;;43.10;16.17;;;;;;;11.29;50.22;102228.28;4994384;28;20105;-62
2022/01/16 07:55:59;;;;;;;43.38;16.75;;;;;;;11.29;50.49;102238.13;4994288;28;20049;-62
2022/01/16 07:58:24;;;;;;;37.60;16.52;;;;;;;11.29;50.48;102240.81;4994423;28;20061;-62
2022/01/16 08:00:50;;;;;;;42.08;16.77;;;;;;;11.28;50.15;102248.00;4976833;28;20034;-62
2022/01/16 08:03:15;;;;;;;40.95;16.35;;;;;;;11.28;50.21;102247.16;4976943;28;20137;-62
2022/01/16 08:05:40;;;;;;;41.78;16.63;;;;;;;11.32;50.01;102246.00;4994339;28;20033;-62
2022/01/16 08:08:06;;;;;;;45.92;17.75;;;;;;;11.34;50.34;102246.75;4994334;28;20041;-62
2022/01/16 08:10:32;;;;;;;45.00;17.52;;;;;;;11.34;50.83;102238.69;4977255;28;20088;-61
2022/01/16 08:12:58;;;;;;;36.17;14.73;;;;;;;11.31;50.29;102242.44;4994283;28;20027;-62
2022/01/16 08:15:24;;;;;;;43.15;16.38;;;;;;;11.30;50.74;102239.88;4977204;28;20072;-62
2022/01/16 08:17:49;;;;;;;43.85;17.65;;;;;;;11.35;50.23;102251.16;4994109;28;20049;-62
2022/01/16 08:20:15;;;;;;;40.15;14.55;;;;;;;11.32;50.22;102244.19;4993797;28;20034;-62
2022/01/16 08:22:40;;;;;;;47.25;16.02;;;;;;;11.36;50.40;102240.31;4994073;28;20030;-61
2022/01/16 08:25:06;;;;;;;39.42;15.27;;;;;;;11.36;50.15;102240.31;4993911;28;20492;-62
2022/01/16 08:27:31;;;;;;;42.97;15.10;;;;;;;11.28;50.72;102220.34;4994228;28;20468;-62
2022/01/16 08:29:57;;;;;;;43.53;15.52;;;;;;;11.42;49.91;102241.75;4993840;28;20022;-62
2022/01/16 08:32:22;;;;;;;41.08;15.38;;;;;;;11.45;50.09;102238.84;4994026;28;20480;-62
2022/01/16 08:34:47;;;;;;;38.60;16.25;;;;;;;11.45;50.54;102249.59;4994103;28;20073;-62
2022/01/16 08:37:13;;;;;;;39.65;15.48;;;;;;;11.46;50.60;102251.31;4993494;28;20508;-61
2022/01/16 08:39:38;;;;;;;35.15;14.52;;;;;;;11.48;50.23;102254.75;4993757;28;20097;-62
2022/01/16 08:42:04;;;;;;;43.00;16.83;;;;;;;11.46;49.87;102260.25;4993854;28;20026;-62
2022/01/16 08:44:29;;;;;;;40.63;15.25;;;;;;;11.50;49.89;102263.59;4993624;28;20109;-62
2022/01/16 08:46:55;;;;;;;49.63;16.92;;;;;;;11.52;49.62;102257.16;4993688;28;20026;-62
2022/01/16 08:49:20;;;;;;;38.42;15.57;;;;;;;11.54;50.28;102260.59;4993915;28;20057;-62
2022/01/16 08:51:45;;;;;;;43.42;15.15;;;;;;;11.54;50.21;102255.22;4993765;28;20030;-62
2022/01/16 08:54:11;;;;;;;41.63;15.63;;;;;;;11.55;49.84;102256.97;4993489;28;20446;-62
2022/01/16 08:56:36;;;;;;;37.85;15.77;;;;;;;11.58;50.39;102266.63;4993702;28;20018;-63
2022/01/16 08:59:03;;;;;;;40.22;14.70;;;;;;;11.57;49.67;102291.75;4993846;28;20066;-61
2022/01/16 09:01:28;;;;;;;43.22;17.23;;;;;;;11.58;49.79;102280.06;4976209;28;20554;-62
2022/01/16 09:03:53;;;;;;;43.47;17.60;;;;;;;11.61;50.11;102277.16;4993628;28;20030;-62
2022/01/16 09:06:19;;;;;;;42.33;16.13;;;;;;;11.64;49.78;102276.97;4976331;28;20022;-62
2022/01/16 09:08:45;;;;;;;55.38;16.38;;;;;;;11.63;50.02;102264.50;4993808;28;20097;-63
2022/01/16 09:11:10;;;;;;;46.83;16.90;;;;;;;11.69;50.20;102280.25;4993536;28;20530;-63
2022/01/16 09:13:37;;;;;;;45.63;16.15;;;;;;;11.70;50.08;102276.56;4976261;28;20022;-63
2022/01/16 09:16:03;;;;;;;54.50;18.70;;;;;;;11.72;50.17;102279.19;4976069;28;20030;-62
2022/01/16 09:18:28;;;;;;;51.67;16.48;;;;;;;11.72;49.79;102284.53;4993705;28;20040;-62
2022/01/16 09:20:54;;;;;;;48.03;16.08;;;;;;;11.75;49.73;102284.34;4993403;28;20464;-63
2022/01/16 09:23:20;;;;;;;47.47;16.80;;;;;;;11.75;49.68;102284.34;4976333;28;20033;-63
2022/01/16 09:25:45;;;;;;;42.78;15.68;;;;;;;11.76;50.23;102292.28;4993354;28;20027;-62
2022/01/16 09:28:11;;;;;;;42.63;16.30;;;;;;;11.76;50.11;102297.66;4993593;28;20026;-62
2022/01/16 09:30:36;;;;;;;42.00;15.65;;;;;;;11.78;49.76;102300.25;4993359;28;20089;-62
2022/01/16 09:33:02;;;;;;;47.15;16.73;;;;;;;11.83;50.05;102319.59;4995280;28;20030;-62
2022/01/16 09:35:28;;;;;;;42.45;15.35;;;;;;;11.81;49.64;102317.00;4996548;28;20045;-62
2022/01/16 09:37:54;;;;;;;44.22;15.40;;;;;;;11.81;49.69;102310.78;4996908;28;20026;-62
2022/01/16 09:40:21;;;;;;;47.83;18.75;;;;;;;11.84;50.04;102322.16;4996754;28;20176;-62
2022/01/16 09:42:47;;;;;;;44.15;16.23;;;;;;;11.82;50.79;102310.69;4979415;28;20480;-62
2022/01/16 09:45:15;;;;;;;42.85;16.58;;;;;;;11.86;50.19;102325.63;4979116;28;20034;-63
2022/01/16 09:47:43;;;;;;;45.42;14.65;;;;;;;11.83;49.59;102314.22;4979060;28;20113;-62
2022/01/16 09:50:09;;;;;;;51.83;15.43;;;;;;;11.87;49.90;102315.72;4996920;28;20022;-62
2022/01/16 09:52:36;;;;;;;45.50;15.50;;;;;;;11.86;49.74;102325.63;4996651;28;20084;-62
2022/01/16 09:55:02;;;;;;;43.53;15.77;;;;;;;11.85;49.50;102329.28;4996517;28;20028;-62
2022/01/16 09:57:28;;;;;;;51.92;16.73;;;;;;;11.81;49.79;102321.53;4979074;28;20272;-62
2022/01/16 09:59:53;;;;;;;45.72;16.40;;;;;;;11.85;49.58;102329.28;4996293;28;20458;-62
2022/01/16 10:02:18;;;;;;;45.50;16.42;;;;;;;11.84;50.20;102332.91;4996517;28;20050;-62
2022/01/16 10:04:44;;;;;;;47.38;16.42;;;;;;;11.87;49.80;102332.72;4978877;28;20416;-62
2022/01/16 10:07:15;;;;;;;36.22;14.52;;;;;;;11.89;49.86;102336.16;4996289;28;20089;-62
2022/01/16 10:10:02;;;;;;;37.40;14.75;;;;;;;11.83;49.78;102324.97;4996065;28;20029;-62
2022/01/16 10:12:27;;;;;;;48.78;15.90;;;;;;;11.91;49.42;102346.81;4978781;28;20399;-63
2022/01/16 10:14:52;;;;;;;39.05;14.43;;;;;;;11.93;50.05;102342.19;4996285;28;20022;-63
2022/01/16 10:17:20;;;;;;;33.63;14.18;;;;;;;11.99;49.44;102352.53;4978541;28;20503;-63
2022/01/16 10:19:57;;;;;;;36.88;13.75;;;;;;;12.06;49.09;102351.19;4995929;28;20022;-63
2022/01/16 10:22:22;;;;;;;42.13;14.65;;;;;;;12.15;49.60;102353.22;4996009;28;20026;-62
2022/01/16 10:24:51;;;;;;;35.22;14.07;;;;;;;12.16;50.31;102355.84;4978758;28;20034;-63
2022/01/16 10:27:18;;;;;;;29.48;13.75;;;;;;;12.12;48.83;102356.13;4995974;28;20030;-62
2022/01/16 10:29:56;;;;;;;39.17;13.82;;;;;;;12.15;49.43;102359.47;4995867;28;20034;-63
2022/01/16 10:32:31;;;;;;;41.65;14.15;;;;;;;12.11;49.71;102352.59;4995802;28;20092;-62
2022/01/16 10:35:14;;;;;;;34.63;13.00;;;;;;;12.13;49.60;102361.41;4996155;28;20527;-62
2022/01/16 10:37:44;;;;;;;33.60;12.70;;;;;;;12.11;49.76;102363.34;4959122;28;20059;-63
2022/01/16 10:40:14;;;;;;;31.38;12.80;;;;;;;12.09;49.92;102370.63;4976205;28;20103;-62
2022/01/16 10:42:40;;;;;;;26.83;11.50;;;;;;;12.03;49.45;102364.81;4976229;28;20031;-63
2022/01/16 10:45:13;;;;;;;35.42;13.13;;;;;;;12.09;49.42;102375.13;4976257;28;20038;-62
2022/01/16 10:47:54;;;;;;;29.17;11.98;;;;;;;12.09;49.12;102386.72;4976183;28;20041;-63
2022/01/16 10:50:25;;;;;;;31.40;12.50;;;;;;;12.09;49.40;102376.00;4976248;28;20022;-62
2022/01/16 10:52:56;;;;;;;31.30;12.52;;;;;;;12.11;49.15;102374.09;4976129;28;20437;-62
2022/01/16 10:55:38;;;;;;;34.03;13.05;;;;;;;12.13;49.36;102372.16;4976012;28;20055;-63
2022/01/16 10:58:28;;;;;;;32.72;12.60;;;;;;;12.15;49.33;102380.97;4976259;28;20098;-63
2022/01/16 11:01:04;;;;;;;25.90;11.05;;;;;;;12.17;49.45;102372.81;4974721;28;20085;-62
2022/01/16 11:03:41;;;;;;;29.42;12.75;;;;;;;12.24;50.19;102379.50;4975828;28;20048;-62
2022/01/16 11:06:07;;;;;;;26.50;11.25;;;;;;;12.24;49.61;102368.75;4974567;28;20031;-63
2022/01/16 11:08:33;;;;;;;33.33;11.80;;;;;;;12.25;50.03;102374.00;4975789;28;20499;-62
2022/01/16 11:10:59;;;;;;;33.35;11.90;;;;;;;12.33;49.06;102378.88;4975666;28;20504;-63
2022/01/16 11:13:29;;;;;;;24.77;12.63;;;;;;;12.25;49.08;102371.31;4975593;28;20019;-63
2022/01/16 11:15:58;;;;;;;32.13;12.05;;;;;;;12.36;49.47;102383.19;4975839;28;20027;-63
2022/01/16 11:18:24;;;;;;;27.05;10.82;;;;;;;12.38;49.31;102382.13;4975770;28;20038;-63
2022/01/16 11:21:42;;;;;;;28.95;11.48;;;;;;;12.41;49.81;102365.81;4974346;28;20114;-62
2022/01/16 11:26:23;;;;;;;25.42;10.45;;;;;;;12.45;48.97;102366.47;4975865;28;20034;-63
2022/01/16 11:28:51;;;;;;;28.92;11.13;;;;;;;12.36;49.80;102338.38;4975453;28;20037;-63
2022/01/16 11:31:17;;;;;;;34.65;12.52;;;;;;;12.53;49.47;102354.22;4975365;28;20030;-62
2022/01/16 11:33:43;;;;;;;36.45;11.55;;;;;;;12.60;48.84;102366.28;4975439;28;20105;-62
2022/01/16 11:36:19;;;;;;;25.50;11.50;;;;;;;12.62;48.89;102348.19;4980842;28;20542;-62
2022/01/16 11:38:47;;;;;;;28.02;11.65;;;;;;;12.68;48.71;102353.16;4994654;28;20072;-62
2022/01/16 11:41:25;;;;;;;27.17;11.82;;;;;;;12.71;49.65;102354.78;4994790;28;20117;-62
2022/01/16 11:43:52;;;;;;;25.15;11.50;;;;;;;12.71;49.58;102352.09;4994376;28;20057;-63
2022/01/16 11:46:20;;;;;;;28.75;10.13;;;;;;;12.67;48.79;102339.84;4994859;28;20026;-63
2022/01/16 11:49:02;;;;;;;25.25;10.77;;;;;;;12.70;49.27;102355.75;4994438;28;20026;-62
2022/01/16 11:53:58;;;;;;;24.17;9.93;;;;;;;12.70;49.65;102353.06;4994430;28;20118;-62
2022/01/16 11:56:54;;;;;;;28.80;11.70;;;;;;;12.69;49.22;102340.59;4993865;28;20054;-62
2022/01/16 11:59:35;;;;;;;26.48;10.43;;;;;;;12.72;49.71;102352.00;4966666;28;20045;-62
2022/01/16 12:02:10;;;;;;;22.45;9.98;;;;;;;12.70;49.15;102348.53;4960677;28;20026;-62